createdAt,value
2017-09-27T00:00:41.975Z,83.78
2017-09-27T00:03:10.241Z,84.19
2017-09-27T00:05:39.264Z,83.90
2017-09-27T00:08:07.533Z,84.40
2017-09-27T00:10:35.800Z,84.70
2017-09-27T00:13:04.058Z,84.44
2017-09-27T00:15:33.088Z,83.76
2017-09-27T00:18:01.342Z,83.98
2017-09-27T00:20:29.617Z,84.04
2017-09-27T00:22:57.872Z,84.33
2017-09-27T00:25:26.916Z,84.80
2017-09-27T00:27:55.178Z,84.76
2017-09-27T00:30:23.449Z,84.62
2017-09-27T00:32:51.730Z,84.52
2017-09-27T00:35:19.994Z,84.98
2017-09-27T00:37:48.252Z,85.14
2017-09-27T00:40:17.289Z,84.93
2017-09-27T00:42:45.548Z,85.03
2017-09-27T00:45:13.819Z,85.07
2017-09-27T00:47:42.083Z,85.13
2017-09-27T00:50:10.343Z,85.21
2017-09-27T00:52:39.375Z,85.15
2017-09-27T00:55:07.648Z,84.92
2017-09-27T00:57:35.912Z,85.01
2017-09-27T01:00:04.178Z,85.03
2017-09-27T01:02:32.443Z,85.09
2017-09-27T01:05:01.480Z,85.13
2017-09-27T01:07:30.608Z,85.21
2017-09-27T01:09:58.880Z,85.21
2017-09-27T01:12:27.135Z,85.17
2017-09-27T01:14:55.394Z,85.13
2017-09-27T01:17:23.660Z,85.21
2017-09-27T01:19:51.924Z,85.29
2017-09-27T01:22:20.184Z,85.54
2017-09-27T01:24:49.222Z,85.47
2017-09-27T01:27:17.481Z,85.46
2017-09-27T01:29:45.750Z,85.43
2017-09-27T01:32:14.005Z,85.41
2017-09-27T01:34:43.038Z,85.35
2017-09-27T01:37:11.292Z,85.32
2017-09-27T01:39:39.558Z,85.27
2017-09-27T01:42:07.820Z,85.25
2017-09-27T01:44:36.850Z,85.19
2017-09-27T01:47:05.122Z,85.22
2017-09-27T01:49:33.383Z,84.95
2017-09-27T01:52:01.638Z,84.77
2017-09-27T01:54:30.667Z,84.84
2017-09-27T01:56:58.923Z,84.82
2017-09-27T01:59:27.190Z,84.77
2017-09-27T02:01:56.225Z,84.75
2017-09-27T02:04:24.492Z,84.70
2017-09-27T02:06:52.748Z,84.64
2017-09-27T02:09:21.020Z,84.88
2017-09-27T02:11:50.042Z,84.73
2017-09-27T02:14:18.319Z,84.63
2017-09-27T02:16:46.567Z,84.56
2017-09-27T02:19:14.836Z,84.18
2017-09-27T02:21:43.858Z,84.18
2017-09-27T02:24:12.139Z,84.25
2017-09-27T02:26:40.395Z,84.22
2017-09-27T02:29:08.668Z,84.43
2017-09-27T02:31:36.919Z,84.64
2017-09-27T02:34:05.952Z,84.58
2017-09-27T02:36:34.213Z,84.75
2017-09-27T02:39:02.470Z,84.79
2017-09-27T02:41:31.495Z,84.81
2017-09-27T02:43:59.769Z,84.90
2017-09-27T02:46:28.030Z,84.72
2017-09-27T02:48:56.287Z,84.98
2017-09-27T02:51:25.323Z,84.94
2017-09-27T02:53:53.582Z,84.80
2017-09-27T02:56:21.851Z,85.28
2017-09-27T02:58:50.116Z,85.32
2017-09-27T03:01:19.146Z,85.28
2017-09-27T03:03:47.412Z,85.36
2017-09-27T03:06:15.676Z,85.00
2017-09-27T03:08:43.940Z,84.85
2017-09-27T03:11:12.205Z,84.80
2017-09-27T03:13:41.231Z,84.86
2017-09-27T03:16:09.491Z,84.71
2017-09-27T03:18:37.756Z,84.74
2017-09-27T03:21:06.787Z,84.68
2017-09-27T03:23:35.047Z,85.34
2017-09-27T03:26:03.306Z,85.16
2017-09-27T03:28:31.561Z,85.54
2017-09-27T03:31:00.613Z,85.72
2017-09-27T03:33:28.872Z,85.80
2017-09-27T03:35:57.137Z,85.52
2017-09-27T03:38:25.387Z,85.37
2017-09-27T03:40:54.423Z,85.28
2017-09-27T03:43:22.692Z,85.52
2017-09-27T03:45:50.962Z,85.34
2017-09-27T03:48:19.215Z,85.28
2017-09-27T03:50:48.251Z,84.84
2017-09-27T03:53:16.512Z,84.69
2017-09-27T03:55:44.775Z,84.64
2017-09-27T03:58:13.032Z,85.12
2017-09-27T04:00:42.063Z,85.11
2017-09-27T04:03:10.436Z,85.22
2017-09-27T04:05:38.700Z,85.02
2017-09-27T04:08:06.954Z,85.10
2017-09-27T04:10:35.984Z,84.73
2017-09-27T04:13:04.242Z,84.87
2017-09-27T04:15:32.504Z,84.91
2017-09-27T04:18:00.769Z,84.78
2017-09-27T04:20:29.802Z,84.60
2017-09-27T04:22:58.065Z,84.48
2017-09-27T04:25:26.327Z,84.56
2017-09-27T04:27:54.583Z,85.03
2017-09-27T04:30:23.616Z,85.36
2017-09-27T04:32:51.866Z,85.43
2017-09-27T04:35:20.903Z,85.69
2017-09-27T04:37:49.166Z,85.57
2017-09-27T04:40:17.427Z,85.60
2017-09-27T04:42:45.687Z,85.90
2017-09-27T04:45:14.715Z,85.71
2017-09-27T04:47:42.968Z,85.58
2017-09-27T04:50:11.227Z,85.47
2017-09-27T04:52:40.252Z,85.42
2017-09-27T04:55:08.520Z,85.53
2017-09-27T04:57:36.784Z,85.42
2017-09-27T05:00:05.047Z,85.35
2017-09-27T05:02:34.077Z,85.48
2017-09-27T05:05:02.336Z,85.30
2017-09-27T05:07:30.590Z,85.35
2017-09-27T05:09:59.624Z,85.24
2017-09-27T05:12:27.891Z,85.05
2017-09-27T05:14:56.155Z,85.01
2017-09-27T05:17:24.407Z,84.91
2017-09-27T05:19:53.441Z,85.15
2017-09-27T05:22:21.702Z,85.17
2017-09-27T05:24:49.972Z,85.03
2017-09-27T05:27:18.227Z,85.09
2017-09-27T05:29:47.252Z,85.08
2017-09-27T05:32:15.530Z,85.34
2017-09-27T05:34:43.786Z,85.25
2017-09-27T05:37:12.060Z,85.30
2017-09-27T05:39:40.315Z,85.27
2017-09-27T05:42:08.584Z,85.50
2017-09-27T05:44:36.839Z,85.28
2017-09-27T05:47:05.108Z,84.95
2017-09-27T05:49:33.373Z,84.21
2017-09-27T05:52:01.635Z,84.23
2017-09-27T05:54:29.904Z,84.44
2017-09-27T05:56:58.171Z,84.39
2017-09-27T05:59:26.422Z,84.47
2017-09-27T06:01:55.462Z,84.02
2017-09-27T06:04:23.711Z,83.63
2017-09-27T06:06:51.980Z,83.40
2017-09-27T06:09:21.004Z,83.64
2017-09-27T06:11:49.268Z,83.26
2017-09-27T06:14:17.531Z,82.55
2017-09-27T06:16:45.790Z,82.48
2017-09-27T06:19:14.818Z,82.22
2017-09-27T06:21:43.082Z,82.29
2017-09-27T06:24:11.347Z,82.50
2017-09-27T06:26:39.621Z,82.95
2017-09-27T06:29:08.644Z,82.52
2017-09-27T06:31:36.909Z,82.51
2017-09-27T06:34:05.166Z,82.51
2017-09-27T06:36:34.199Z,82.36
2017-09-27T06:39:02.462Z,82.77
2017-09-27T06:41:30.728Z,83.04
2017-09-27T06:43:58.991Z,83.01
2017-09-27T06:46:27.253Z,82.64
2017-09-27T06:48:56.279Z,83.07
2017-09-27T06:51:24.543Z,82.58
2017-09-27T06:53:52.796Z,82.79
2017-09-27T06:56:21.836Z,82.86
2017-09-27T06:58:50.098Z,83.06
2017-09-27T07:01:18.363Z,83.30
2017-09-27T07:03:46.619Z,83.71
2017-09-27T07:06:15.648Z,84.14
2017-09-27T07:08:43.908Z,83.77
2017-09-27T07:11:12.179Z,83.76
2017-09-27T07:13:40.432Z,83.96
2017-09-27T07:16:09.472Z,83.36
2017-09-27T07:18:37.739Z,83.18
2017-09-27T07:21:06.003Z,83.04
2017-09-27T07:23:34.269Z,83.22
2017-09-27T07:26:03.295Z,82.95
2017-09-27T07:28:31.668Z,82.72
2017-09-27T07:30:59.936Z,82.51
2017-09-27T07:33:28.196Z,81.89
2017-09-27T07:35:56.464Z,82.11
2017-09-27T07:38:25.482Z,81.33
2017-09-27T07:40:53.861Z,80.81
2017-09-27T07:43:22.109Z,80.89
2017-09-27T07:45:51.152Z,79.80
2017-09-27T07:48:19.412Z,78.65
2017-09-27T07:50:47.673Z,79.10
2017-09-27T07:53:15.926Z,77.67
2017-09-27T07:55:44.963Z,77.62
2017-09-27T07:58:13.215Z,76.18
2017-09-27T08:00:41.474Z,76.57
2017-09-27T08:03:10.493Z,75.49
2017-09-27T08:05:38.767Z,74.64
2017-09-27T08:08:07.115Z,76.35
2017-09-27T08:10:35.368Z,75.38
2017-09-27T08:13:03.624Z,74.26
2017-09-27T08:15:32.644Z,74.99
2017-09-27T08:18:00.910Z,72.93
2017-09-27T08:20:29.159Z,72.92
2017-09-27T08:22:57.423Z,73.62
2017-09-27T08:25:25.680Z,72.37
2017-09-27T08:27:53.949Z,72.19
2017-09-27T08:30:22.194Z,73.32
2017-09-27T08:32:50.460Z,71.44
2017-09-27T08:35:19.484Z,72.89
2017-09-27T08:37:47.743Z,71.88
2017-09-27T08:40:16.000Z,72.43
2017-09-27T08:42:45.024Z,71.48
2017-09-27T08:45:13.275Z,71.40
2017-09-27T08:47:42.299Z,70.04
2017-09-27T08:50:10.555Z,70.41
2017-09-27T08:52:38.832Z,69.44
2017-09-27T08:55:07.087Z,69.62
2017-09-27T08:57:36.118Z,68.11
2017-09-27T09:00:04.366Z,67.76
2017-09-27T09:02:32.630Z,67.76
2017-09-27T09:05:01.661Z,69.09
2017-09-27T09:07:29.924Z,68.21
2017-09-27T09:09:58.178Z,68.18
2017-09-27T09:12:27.215Z,69.16
2017-09-27T09:14:55.463Z,70.03
2017-09-27T09:17:23.733Z,69.45
2017-09-27T09:19:51.986Z,67.84
2017-09-27T09:22:21.016Z,67.97
2017-09-27T09:24:49.267Z,66.57
2017-09-27T09:27:18.299Z,67.23
2017-09-27T09:29:46.550Z,68.05
2017-09-27T09:32:14.828Z,65.64
2017-09-27T09:34:43.085Z,66.51
2017-09-27T09:37:12.110Z,66.04
2017-09-27T09:39:40.360Z,65.63
2017-09-27T09:42:08.623Z,66.80
2017-09-27T09:44:37.647Z,64.61
2017-09-27T09:47:05.911Z,64.25
2017-09-27T09:49:34.162Z,64.64
2017-09-27T09:52:03.193Z,66.06
2017-09-27T09:54:31.443Z,63.76
2017-09-27T09:57:00.472Z,64.83
2017-09-27T09:59:28.723Z,64.68
2017-09-27T10:01:56.983Z,64.68
2017-09-27T10:04:26.003Z,64.40
2017-09-27T10:06:54.262Z,64.34
2017-09-27T10:09:22.523Z,62.80
2017-09-27T10:11:51.608Z,64.44
2017-09-27T10:14:19.859Z,63.13
2017-09-27T10:16:48.119Z,64.95
2017-09-27T10:19:16.371Z,63.30
2017-09-27T10:21:44.638Z,64.10
2017-09-27T10:24:12.903Z,62.62
2017-09-27T10:26:41.923Z,62.55
2017-09-27T10:29:10.184Z,62.05
2017-09-27T10:31:38.446Z,63.13
2017-09-27T10:34:07.470Z,60.96
2017-09-27T10:36:35.734Z,59.75
2017-09-27T10:39:04.000Z,59.06
2017-09-27T10:41:32.259Z,60.34
2017-09-27T10:44:01.388Z,58.82
2017-09-27T10:46:29.655Z,61.84
2017-09-27T10:48:57.907Z,60.33
2017-09-27T10:51:26.935Z,59.96
2017-09-27T10:53:55.192Z,57.86
2017-09-27T10:56:24.220Z,57.57
2017-09-27T10:58:52.577Z,56.69
2017-09-27T11:01:20.835Z,57.69
2017-09-27T11:03:49.099Z,58.90
2017-09-27T11:06:18.119Z,53.44
2017-09-27T11:08:46.388Z,51.90
2017-09-27T11:11:14.640Z,51.85
2017-09-27T11:13:43.672Z,52.62
2017-09-27T11:16:11.922Z,51.70
2017-09-27T11:18:40.955Z,50.37
2017-09-27T11:21:09.208Z,51.25
2017-09-27T11:23:37.479Z,51.12
2017-09-27T11:26:05.741Z,50.84
2017-09-27T11:28:34.772Z,48.37
2017-09-27T11:31:03.022Z,48.95
2017-09-27T11:33:31.292Z,52.51
2017-09-27T11:35:59.552Z,48.49
2017-09-27T11:38:28.580Z,49.16
2017-09-27T11:40:56.836Z,49.24
2017-09-27T11:43:25.095Z,51.67
2017-09-27T11:45:54.117Z,51.44
2017-09-27T11:48:22.376Z,52.71
2017-09-27T11:50:50.639Z,55.49
2017-09-27T11:53:19.669Z,56.93
2017-09-27T11:55:47.922Z,55.07
2017-09-27T11:58:16.186Z,55.42
2017-09-27T12:00:45.210Z,55.84
2017-09-27T12:03:13.478Z,56.57
2017-09-27T12:05:41.736Z,52.94
2017-09-27T12:08:10.766Z,51.97
2017-09-27T12:10:39.031Z,53.12
2017-09-27T12:13:07.299Z,49.47
2017-09-27T12:15:35.548Z,49.80
2017-09-27T12:18:04.586Z,49.74
2017-09-27T12:20:32.840Z,48.81
2017-09-27T12:23:01.107Z,51.75
2017-09-27T12:25:29.371Z,48.05
2017-09-27T12:27:58.395Z,47.23
2017-09-27T12:30:26.655Z,53.27
2017-09-27T12:32:54.919Z,52.82
2017-09-27T12:35:23.939Z,50.84
2017-09-27T12:37:52.208Z,46.96
2017-09-27T12:40:20.464Z,48.67
2017-09-27T12:42:49.493Z,45.28
2017-09-27T12:45:17.742Z,43.76
2017-09-27T12:47:46.008Z,46.63
2017-09-27T12:50:15.032Z,44.55
2017-09-27T12:52:43.305Z,49.29
2017-09-27T12:55:11.554Z,51.48
2017-09-27T12:57:40.592Z,52.39
2017-09-27T13:00:08.841Z,54.59
2017-09-27T13:02:37.104Z,52.98
2017-09-27T13:05:06.122Z,48.87
2017-09-27T13:07:34.389Z,50.65
2017-09-27T13:10:02.650Z,52.28
2017-09-27T13:12:30.919Z,53.21
2017-09-27T13:14:59.936Z,53.19
2017-09-27T13:17:28.199Z,54.03
2017-09-27T13:19:56.456Z,51.31
2017-09-27T13:22:25.480Z,52.23
2017-09-27T13:24:53.738Z,52.83
2017-09-27T13:27:22.767Z,50.67
2017-09-27T13:29:51.031Z,48.41
2017-09-27T13:32:19.298Z,50.35
2017-09-27T13:34:47.547Z,47.96
2017-09-27T13:37:16.574Z,51.91
2017-09-27T13:39:44.838Z,52.31
2017-09-27T13:42:13.104Z,49.76
2017-09-27T13:44:41.355Z,51.77
2017-09-27T13:47:09.621Z,53.46
2017-09-27T13:49:37.874Z,54.31
2017-09-27T13:52:06.138Z,53.67
2017-09-27T13:54:34.396Z,53.55
2017-09-27T13:57:02.659Z,54.11
2017-09-27T13:59:30.921Z,55.14
2017-09-27T14:01:59.949Z,50.92
2017-09-27T14:04:28.204Z,51.54
2017-09-27T14:06:56.456Z,51.46
2017-09-27T14:09:25.485Z,48.25
2017-09-27T14:11:53.735Z,45.58
2017-09-27T14:14:22.773Z,43.06
2017-09-27T14:16:51.018Z,43.69
2017-09-27T14:19:19.283Z,42.46
2017-09-27T14:21:48.296Z,44.68
2017-09-27T14:24:16.563Z,44.94
2017-09-27T14:26:44.823Z,42.47
2017-09-27T14:29:13.848Z,43.03
2017-09-27T14:31:42.100Z,40.22
2017-09-27T14:34:10.359Z,39.94
2017-09-27T14:36:39.375Z,39.81
2017-09-27T14:39:07.635Z,42.82
2017-09-27T14:41:36.663Z,42.25
2017-09-27T14:44:04.918Z,43.77
2017-09-27T14:46:33.183Z,45.02
2017-09-27T14:49:02.210Z,44.59
2017-09-27T14:51:30.468Z,44.84
2017-09-27T14:53:58.729Z,44.63
2017-09-27T14:56:27.751Z,42.77
2017-09-27T14:58:56.011Z,42.43
2017-09-27T15:01:24.275Z,44.73
2017-09-27T15:03:53.307Z,43.89
2017-09-27T15:06:21.565Z,43.46
2017-09-27T15:08:49.845Z,49.21
2017-09-27T15:11:18.091Z,47.81
2017-09-27T15:13:47.132Z,48.37
2017-09-27T15:16:15.390Z,48.11
2017-09-27T15:18:43.652Z,48.07
2017-09-27T15:21:11.908Z,50.10
2017-09-27T15:23:40.939Z,52.73
2017-09-27T15:26:09.208Z,49.64
2017-09-27T15:28:37.463Z,46.50
2017-09-27T15:31:05.730Z,46.78
2017-09-27T15:33:34.751Z,46.59
2017-09-27T15:36:03.036Z,48.17
2017-09-27T15:38:31.297Z,45.55
2017-09-27T15:40:59.554Z,46.84
2017-09-27T15:43:28.658Z,47.37
2017-09-27T15:45:56.935Z,46.74
2017-09-27T15:48:25.196Z,48.26
2017-09-27T15:50:54.217Z,48.26
2017-09-27T15:53:22.487Z,47.88
2017-09-27T15:55:50.731Z,49.17
2017-09-27T15:58:19.760Z,49.83
2017-09-27T16:00:48.016Z,52.57
2017-09-27T16:03:16.275Z,54.46
2017-09-27T16:05:45.301Z,56.04
2017-09-27T16:08:13.566Z,56.63
2017-09-27T16:10:41.811Z,57.99
2017-09-27T16:13:10.948Z,58.18
2017-09-27T16:15:39.213Z,57.78
2017-09-27T16:18:08.719Z,58.89
2017-09-27T16:20:37.123Z,60.20
2017-09-27T16:23:05.387Z,60.68
2017-09-27T16:25:33.647Z,61.86
2017-09-27T16:28:01.920Z,61.92
2017-09-27T16:30:30.175Z,63.61
2017-09-27T16:32:58.495Z,63.94
2017-09-27T16:35:26.722Z,64.90
2017-09-27T16:37:55.020Z,65.92
2017-09-27T16:40:23.274Z,66.53
2017-09-27T16:42:51.543Z,65.87
2017-09-27T16:45:20.576Z,68.12
2017-09-27T16:47:48.835Z,67.34
2017-09-27T16:50:17.093Z,67.52
2017-09-27T16:52:46.118Z,68.15
2017-09-27T16:55:14.372Z,68.45
2017-09-27T16:57:42.644Z,68.47
2017-09-27T17:00:10.899Z,68.55
2017-09-27T17:02:39.925Z,68.45
2017-09-27T17:05:08.188Z,68.80
2017-09-27T17:07:36.444Z,69.28
2017-09-27T17:10:05.477Z,69.98
2017-09-27T17:12:33.737Z,70.40
2017-09-27T17:15:02.000Z,70.87
2017-09-27T17:17:31.019Z,70.68
2017-09-27T17:19:59.292Z,70.44
2017-09-27T17:22:27.548Z,70.38
2017-09-27T17:24:55.818Z,70.50
2017-09-27T17:27:24.837Z,70.67
2017-09-27T17:29:53.094Z,70.89
2017-09-27T17:32:21.355Z,70.87
2017-09-27T17:34:50.396Z,71.08
2017-09-27T17:37:18.647Z,70.85
2017-09-27T17:39:46.926Z,71.04
2017-09-27T17:42:15.176Z,71.10
2017-09-27T17:44:44.202Z,71.86
2017-09-27T17:47:12.458Z,71.80
2017-09-27T17:49:40.737Z,72.13
2017-09-27T17:52:08.984Z,71.82
2017-09-27T17:54:38.021Z,71.96
2017-09-27T17:57:06.279Z,72.59
2017-09-27T17:59:35.305Z,72.63
2017-09-27T18:02:03.567Z,72.89
2017-09-27T18:04:37.315Z,72.43
2017-09-27T18:07:11.783Z,73.06
2017-09-27T18:12:44.135Z,73.17
2017-09-27T18:15:17.780Z,73.89
2017-09-27T18:17:46.367Z,74.54
2017-09-27T18:20:14.630Z,74.90
2017-09-27T18:22:48.852Z,75.47
2017-09-27T18:25:17.790Z,75.58
2017-09-27T18:27:46.852Z,75.48
2017-09-27T18:30:15.119Z,75.79
2017-09-27T18:32:43.380Z,75.39
2017-09-27T18:35:11.647Z,75.49
2017-09-27T18:37:39.903Z,75.38
2017-09-27T18:40:08.944Z,74.95
2017-09-27T18:42:37.199Z,74.90
2017-09-27T18:45:05.471Z,74.77
2017-09-27T18:47:33.742Z,74.90
2017-09-27T18:50:02.763Z,74.18
2017-09-27T18:52:31.015Z,74.71
2017-09-27T18:54:59.288Z,75.18
2017-09-27T18:57:28.344Z,75.24
2017-09-27T18:59:56.592Z,75.83
2017-09-27T19:02:24.862Z,76.05
2017-09-27T19:04:53.128Z,76.13
2017-09-27T19:07:21.403Z,76.56
2017-09-27T19:09:49.682Z,77.01
2017-09-27T19:12:17.950Z,76.81
2017-09-27T19:14:46.217Z,76.80
2017-09-27T19:17:14.543Z,76.83
2017-09-27T19:19:42.804Z,77.08
2017-09-27T19:22:11.063Z,77.32
2017-09-27T19:24:39.332Z,77.33
2017-09-27T19:27:07.591Z,77.63
2017-09-27T19:29:35.884Z,77.56
2017-09-27T19:32:04.147Z,77.80
2017-09-27T19:34:32.427Z,77.53
2017-09-27T19:37:00.683Z,77.60
2017-09-27T19:39:29.717Z,77.99
2017-09-27T19:41:57.974Z,78.08
2017-09-27T19:44:26.239Z,77.94
2017-09-27T19:46:54.499Z,77.65
2017-09-27T19:49:23.563Z,78.29
2017-09-27T19:51:51.828Z,78.23
2017-09-27T19:54:20.100Z,78.10
2017-09-27T19:56:48.360Z,77.93
2017-09-27T19:59:16.621Z,77.77
2017-09-27T20:01:44.884Z,78.10
2017-09-27T20:04:13.933Z,78.66
2017-09-27T20:06:42.191Z,78.55
2017-09-27T20:09:10.460Z,78.83
2017-09-27T20:11:38.718Z,78.81
2017-09-27T20:14:07.011Z,79.03
2017-09-27T20:16:35.266Z,79.38
2017-09-27T20:19:03.528Z,79.60
2017-09-27T20:21:32.980Z,79.86
2017-09-27T20:24:02.008Z,80.05
2017-09-27T20:26:30.275Z,80.59
2017-09-27T20:28:58.534Z,80.76
2017-09-27T20:31:26.822Z,81.31
2017-09-27T20:33:55.087Z,81.60
2017-09-27T20:36:23.350Z,81.69
2017-09-27T20:38:52.379Z,81.59
2017-09-27T20:41:20.666Z,82.00
2017-09-27T20:43:48.944Z,82.55
2017-09-27T20:46:17.222Z,82.83
2017-09-27T20:51:13.061Z,81.61
2017-09-27T20:53:41.438Z,82.41
2017-09-27T20:56:09.692Z,83.04
2017-09-27T20:58:37.959Z,82.81
2017-09-27T21:01:06.230Z,82.75
2017-09-27T21:03:37.689Z,82.99
2017-09-27T21:06:06.051Z,82.65
2017-09-27T21:08:34.320Z,82.33
2017-09-27T21:11:03.342Z,82.14
2017-09-27T21:13:31.610Z,82.16
2017-09-27T21:16:00.098Z,82.15
2017-09-27T21:18:28.791Z,81.93
2017-09-27T21:20:57.056Z,82.12
2017-09-27T21:23:25.322Z,82.70
2017-09-27T21:25:53.599Z,82.43
2017-09-27T21:28:21.864Z,82.86
2017-09-27T21:30:50.904Z,83.23
2017-09-27T21:33:19.167Z,82.74
2017-09-27T21:35:47.430Z,83.08
2017-09-27T21:38:15.695Z,83.35
2017-09-27T21:40:43.963Z,83.26
2017-09-27T21:43:12.234Z,83.57
2017-09-27T21:45:41.280Z,83.22
2017-09-27T21:48:09.543Z,83.44
2017-09-27T21:50:37.816Z,83.40
2017-09-27T21:53:06.073Z,83.21
2017-09-27T21:55:34.328Z,83.73
2017-09-27T21:58:02.594Z,83.93
2017-09-27T22:00:31.622Z,83.70
2017-09-27T22:02:59.879Z,83.98
2017-09-27T22:05:28.136Z,84.22
2017-09-27T22:07:57.260Z,84.52
2017-09-27T22:10:25.713Z,84.56
2017-09-27T22:12:54.743Z,84.71
2017-09-27T22:15:22.999Z,84.89
2017-09-27T22:17:51.947Z,84.56
2017-09-27T22:20:20.280Z,83.87
2017-09-27T22:22:48.545Z,84.27
2017-09-27T22:25:16.815Z,85.11
2017-09-27T22:27:45.073Z,85.29
2017-09-27T22:30:14.113Z,85.32
2017-09-27T22:32:42.375Z,85.32
2017-09-27T22:35:10.638Z,85.54
2017-09-27T22:37:38.909Z,85.50
2017-09-27T22:40:07.943Z,85.39
2017-09-27T22:42:36.207Z,85.04
2017-09-27T22:45:04.476Z,84.27
2017-09-27T22:47:32.740Z,84.54
2017-09-27T22:50:01.015Z,85.22
2017-09-27T22:52:29.286Z,85.23
2017-09-27T22:54:57.549Z,86.21
2017-09-27T22:57:26.588Z,86.45
2017-09-27T22:59:54.849Z,86.09
2017-09-27T23:02:23.127Z,86.04
2017-09-27T23:04:51.383Z,85.87
2017-09-27T23:07:19.656Z,85.95
2017-09-27T23:09:48.678Z,85.85
2017-09-27T23:12:16.950Z,85.71
2017-09-27T23:14:45.219Z,85.90
2017-09-27T23:17:13.488Z,86.05
2017-09-27T23:19:41.746Z,85.70
2017-09-27T23:22:10.059Z,85.05
2017-09-27T23:24:38.319Z,85.11
2017-09-27T23:27:06.585Z,85.35
2017-09-27T23:29:34.854Z,85.49
2017-09-27T23:32:03.116Z,85.67
2017-09-27T23:34:32.144Z,86.04
2017-09-27T23:37:00.402Z,86.05
2017-09-27T23:39:28.669Z,86.16
2017-09-27T23:41:56.929Z,86.04
2017-09-27T23:44:25.973Z,85.95
2017-09-27T23:46:54.218Z,85.95
2017-09-27T23:49:22.499Z,85.07
2017-09-27T23:51:50.763Z,85.20
2017-09-27T23:54:19.787Z,84.76
2017-09-27T23:56:48.058Z,85.36
2017-09-27T23:59:16.319Z,85.52
